Time;durP1;ratioP1;P1;durP2;ratioP2;P2;SDS_P1;SDS_P2;PMS_P1;PMS_P2;Temp;Humidity;BMP_temperature;BMP_pressure;BME280_temperature;BME280_humidity;BME280_pressure;Samples;Min_cycle;Max_cycle;Signal;HPM_P1;HPM_P2
2023/09/23 00:01:44;;;;;;;;;;;;;;;21.80;30.24;97986.09;5035471;28;957;-78
2023/09/23 00:04:09;;;;;;;;;;;;;;;21.80;29.96;97977.59;5018839;28;1026;-77
2023/09/23 00:06:35;;;;;;;;;;;;;;;21.74;30.24;97979.41;5035295;28;1085;-77
2023/09/23 00:09:02;;;;;;;;;;;;;;;21.85;30.05;97985.56;5002604;28;1914;-78
2023/09/23 00:11:28;;;;;;;;;;;;;;;21.93;29.98;97976.88;5052481;28;920;-77
2023/09/23 00:13:54;;;;;;;;;;;;;;;22.03;29.65;97975.78;5052461;28;972;-78
2023/09/23 00:16:21;;;;;;;;;;;;;;;21.87;29.82;97967.34;5018468;28;1010;-77
2023/09/23 00:18:46;;;;;;;;;;;;;;;21.60;30.28;97957.13;5018330;28;1241;-78
2023/09/23 00:21:12;;;;;;;;;;;;;;;21.96;30.03;97961.81;5018692;28;1062;-77
2023/09/23 00:23:38;;;;;;;;;;;;;;;21.65;30.24;97967.91;5018261;28;968;-79
2023/09/23 00:26:04;;;;;;;;;;;;;;;21.85;30.11;97957.25;4998297;28;961;-78
2023/09/23 00:28:33;;;;;;;;;;;;;;;21.75;30.35;97969.66;5014985;28;1973;-77
2023/09/23 00:31:07;;;;;;;;;;;;;;;21.70;30.34;97975.06;5014820;28;1272;-77
2023/09/23 00:33:37;;;;;;;;;;;;;;;21.98;29.68;97974.28;5015082;28;1111;-77
2023/09/23 00:36:08;;;;;;;;;;;;;;;21.98;29.95;97965.00;5014756;28;1108;-78
2023/09/23 00:38:34;;;;;;;;;;;;;;;22.05;29.71;97964.78;5014837;28;1098;-78
2023/09/23 00:41:00;;;;;;;;;;;;;;;21.80;30.18;97959.81;5014355;28;1760;-78
2023/09/23 00:43:26;;;;;;;;;;;;;;;21.75;30.44;97969.66;4992802;28;1400;-78
2023/09/23 00:45:54;;;;;;;;;;;;;;;21.84;30.25;97949.19;4983258;28;1233;-78
2023/09/23 00:48:23;;;;;;;;;;;;;;;21.88;29.85;97954.78;4993852;28;1985;-78
2023/09/23 00:50:49;;;;;;;;;;;;;;;21.51;30.51;97959.84;4995190;28;962;-77
2023/09/23 00:53:14;;;;;;;;;;;;;;;21.74;30.35;97965.25;4994732;28;984;-77
2023/09/23 00:55:52;;;;;;;;;;;;;;;21.76;30.43;97971.28;4995028;28;940;-77
2023/09/23 00:58:21;;;;;;;;;;;;;;;21.85;30.17;97965.72;5011209;28;1060;-78
2023/09/23 01:00:51;;;;;;;;;;;;;;;21.90;30.09;97963.59;4994577;28;1028;-78
2023/09/23 01:03:17;;;;;;;;;;;;;;;22.00;29.72;97968.16;4978799;28;1358;-77
2023/09/23 01:05:44;;;;;;;;;;;;;;;21.90;30.25;97963.59;5011461;28;1246;-77
2023/09/23 01:08:27;;;;;;;;;;;;;;;21.71;30.44;97965.34;4994625;28;1902;-77
2023/09/23 01:10:52;;;;;;;;;;;;;;;21.72;30.35;97970.56;5014943;28;1236;-78
2023/09/23 01:13:22;;;;;;;;;;;;;;;22.00;30.08;97962.50;5013499;28;1309;-78
2023/09/23 01:15:48;;;;;;;;;;;;;;;22.08;29.76;97952.56;5030450;28;1305;-78
2023/09/23 01:18:14;;;;;;;;;;;;;;;21.80;30.12;97960.63;5030556;28;1238;-78
2023/09/23 01:20:42;;;;;;;;;;;;;;;21.76;30.41;97971.28;5039775;28;1120;-78
2023/09/23 01:23:09;;;;;;;;;;;;;;;22.02;29.85;97960.00;5018719;28;977;-78
2023/09/23 01:25:36;;;;;;;;;;;;;;;21.69;30.40;97960.13;5019089;28;1366;-78
2023/09/23 01:28:12;;;;;;;;;;;;;;;21.79;30.16;97956.19;5035358;28;1902;-77
2023/09/23 01:30:40;;;;;;;;;;;;;;;21.81;30.25;97950.91;5038634;28;990;-78
2023/09/23 01:33:07;;;;;;;;;;;;;;;22.14;29.71;97959.28;5037290;28;1468;-77
2023/09/23 01:35:33;;;;;;;;;;;;;;;22.18;29.46;97959.19;5037237;28;963;-78
2023/09/23 01:37:59;;;;;;;;;;;;;;;22.01;29.84;97958.41;5037535;28;988;-78
2023/09/23 01:40:25;;;;;;;;;;;;;;;22.02;30.13;97954.34;5033618;28;1288;-78
2023/09/23 01:42:53;;;;;;;;;;;;;;;21.77;30.17;97955.06;5033942;28;1045;-78
2023/09/23 01:45:19;;;;;;;;;;;;;;;21.85;30.16;97957.25;5033685;28;947;-77
2023/09/23 01:47:44;;;;;;;;;;;;;;;21.90;29.87;97957.94;4994412;28;1899;-78
2023/09/23 01:50:10;;;;;;;;;;;;;;;21.91;30.08;97948.97;4994342;28;1005;-78
2023/09/23 01:52:37;;;;;;;;;;;;;;;21.71;30.42;97943.50;4994285;28;1104;-78
2023/09/23 01:55:04;;;;;;;;;;;;;;;21.72;30.44;97953.56;4978283;28;1032;-78
2023/09/23 01:57:33;;;;;;;;;;;;;;;21.76;30.19;97948.63;4978235;28;1024;-78
2023/09/23 01:59:59;;;;;;;;;;;;;;;21.95;29.92;97948.88;4994459;28;1342;-77
2023/09/23 02:02:26;;;;;;;;;;;;;;;22.04;29.84;97951.88;4946263;28;1231;-77
2023/09/23 02:04:52;;;;;;;;;;;;;;;22.09;29.61;97954.94;4955365;28;1242;-77
2023/09/23 02:07:18;;;;;;;;;;;;;;;21.98;29.95;97953.66;4955300;28;966;-78
2023/09/23 02:09:44;;;;;;;;;;;;;;;22.04;29.75;97951.88;4939456;28;1953;-77
2023/09/23 02:12:10;;;;;;;;;;;;;;;21.72;30.49;97947.91;4955255;28;1412;-77
2023/09/23 02:14:36;;;;;;;;;;;;;;;21.61;30.74;97947.41;4955698;28;884;-78
2023/09/23 02:17:01;;;;;;;;;;;;;;;21.90;30.21;97949.44;4945949;28;1114;-78
2023/09/23 02:19:27;;;;;;;;;;;;;;;22.02;29.97;97954.34;4961258;28;1239;-78
2023/09/23 02:21:53;;;;;;;;;;;;;;;21.92;29.86;97952.63;4949263;28;1077;-78
2023/09/23 02:24:19;;;;;;;;;;;;;;;21.64;30.51;97949.34;4957692;28;1263;-77
2023/09/23 02:26:47;;;;;;;;;;;;;;;21.88;30.06;97952.72;4978168;28;974;-78
2023/09/23 02:29:16;;;;;;;;;;;;;;;21.81;30.27;97944.41;4978157;28;1981;-77
2023/09/23 02:31:46;;;;;;;;;;;;;;;22.13;29.58;97951.25;4978023;28;1534;-78
2023/09/23 02:34:18;;;;;;;;;;;;;;;21.78;30.39;97948.94;4978245;28;1267;-78
2023/09/23 02:36:45;;;;;;;;;;;;;;;21.92;30.02;97953.44;5011860;28;1191;-78
2023/09/23 02:39:15;;;;;;;;;;;;;;;21.92;29.90;97961.94;5017030;28;1151;-78
2023/09/23 02:41:45;;;;;;;;;;;;;;;22.06;29.78;97961.50;5016959;28;1281;-78
2023/09/23 02:44:12;;;;;;;;;;;;;;;21.82;30.29;97957.34;5000777;28;1233;-77
2023/09/23 02:46:39;;;;;;;;;;;;;;;21.85;29.96;97957.25;5017126;28;910;-78
2023/09/23 02:49:06;;;;;;;;;;;;;;;21.88;30.31;97954.78;5000584;28;1918;-78
2023/09/23 02:51:31;;;;;;;;;;;;;;;21.65;30.45;97953.75;5000661;28;1171;-78
2023/09/23 02:53:57;;;;;;;;;;;;;;;21.64;30.54;97955.00;5000374;28;1175;-77
2023/09/23 02:56:23;;;;;;;;;;;;;;;22.00;29.98;97957.63;5000423;28;1001;-77
2023/09/23 02:58:51;;;;;;;;;;;;;;;21.89;29.91;97954.31;5000405;28;1297;-77
2023/09/23 03:01:18;;;;;;;;;;;;;;;21.92;30.18;97961.13;5026512;28;1245;-78
2023/09/23 03:03:46;;;;;;;;;;;;;;;21.67;30.33;97962.63;5021604;28;1253;-77
2023/09/23 03:06:14;;;;;;;;;;;;;;;21.85;30.36;97960.06;5038821;28;868;-77
2023/09/23 03:08:43;;;;;;;;;;;;;;;22.01;30.00;97955.59;4999984;28;1910;-78
2023/09/23 03:11:11;;;;;;;;;;;;;;;21.90;30.18;97957.94;5000021;28;1413;-78
2023/09/23 03:13:37;;;;;;;;;;;;;;;21.75;30.48;97964.00;5000044;28;1198;-77
2023/09/23 03:16:08;;;;;;;;;;;;;;;21.94;30.00;97967.13;5000277;28;978;-78
2023/09/23 03:18:36;;;;;;;;;;;;;;;22.03;29.83;97970.91;4999922;28;1258;-78
2023/09/23 03:21:08;;;;;;;;;;;;;;;21.89;30.26;97962.03;5000553;28;1232;-78
2023/09/23 03:23:35;;;;;;;;;;;;;;;21.78;30.28;97973.66;5000013;28;1234;-78
2023/09/23 03:26:01;;;;;;;;;;;;;;;21.77;30.36;97970.03;5000014;28;951;-78
2023/09/23 03:28:26;;;;;;;;;;;;;;;21.91;30.10;97970.84;4982739;28;1918;-78
2023/09/23 03:30:58;;;;;;;;;;;;;;;21.78;30.19;97973.66;4983592;28;1453;-78
2023/09/23 03:33:23;;;;;;;;;;;;;;;21.83;30.12;97971.06;4999054;28;1263;-78
2023/09/23 03:35:49;;;;;;;;;;;;;;;22.09;29.82;97971.94;4996814;28;1217;-78
2023/09/23 03:38:15;;;;;;;;;;;;;;;21.80;30.34;97988.94;5012873;28;2067;-78
2023/09/23 03:40:41;;;;;;;;;;;;;;;22.05;29.90;97981.78;5036358;28;1446;-78
2023/09/23 03:43:07;;;;;;;;;;;;;;;21.61;30.53;97980.59;5033711;28;1271;-77
2023/09/23 03:45:33;;;;;;;;;;;;;;;21.72;30.35;97983.94;5020161;28;954;-78
2023/09/23 03:47:59;;;;;;;;;;;;;;;21.94;30.07;97986.97;5036648;28;1914;-78
2023/09/23 03:50:25;;;;;;;;;;;;;;;21.79;30.07;97983.72;5019768;28;1576;-78
2023/09/23 03:52:51;;;;;;;;;;;;;;;21.66;30.61;97980.03;5020192;28;1220;-77
2023/09/23 03:55:18;;;;;;;;;;;;;;;21.90;29.82;97991.94;5037520;28;846;-78
2023/09/23 03:57:44;;;;;;;;;;;;;;;21.77;30.08;97995.50;5019447;28;1745;-78
2023/09/23 04:00:16;;;;;;;;;;;;;;;21.87;30.06;97990.00;5036235;28;1003;-78
2023/09/23 04:02:42;;;;;;;;;;;;;;;21.80;30.04;97988.94;5020627;28;1212;-78
2023/09/23 04:05:08;;;;;;;;;;;;;;;21.96;29.80;97990.94;5035803;28;933;-78
2023/09/23 04:07:33;;;;;;;;;;;;;;;22.05;29.43;97987.44;5036575;28;1452;-78
2023/09/23 04:09:59;;;;;;;;;;;;;;;22.12;29.39;97992.94;5036166;28;1987;-78
2023/09/23 04:12:24;;;;;;;;;;;;;;;21.71;30.25;97993.66;5032428;28;1407;-78
2023/09/23 04:14:50;;;;;;;;;;;;;;;21.47;30.75;97995.94;5016161;28;957;-78
2023/09/23 04:17:16;;;;;;;;;;;;;;;21.92;30.07;98000.78;5020840;28;1483;-78
2023/09/23 04:19:41;;;;;;;;;;;;;;;21.78;30.21;98002.75;5035849;28;922;-77
2023/09/23 04:22:07;;;;;;;;;;;;;;;21.99;29.78;98006.25;5036051;28;951;-78
2023/09/23 04:24:32;;;;;;;;;;;;;;;22.01;29.86;97998.88;5019477;28;1244;-78
2023/09/23 04:26:59;;;;;;;;;;;;;;;21.83;30.19;98005.06;5036831;28;1600;-78
2023/09/23 04:29:25;;;;;;;;;;;;;;;22.08;29.66;98006.41;5018966;28;1980;-78
2023/09/23 04:31:51;;;;;;;;;;;;;;;21.99;29.75;98006.25;5019540;28;1123;-78
2023/09/23 04:34:17;;;;;;;;;;;;;;;21.81;30.26;98009.56;5018227;28;991;-78
2023/09/23 04:36:43;;;;;;;;;;;;;;;21.75;30.03;98009.31;5018669;28;1407;-78
2023/09/23 04:39:09;;;;;;;;;;;;;;;21.91;29.76;98008.47;5014600;28;1262;-78
2023/09/23 04:41:37;;;;;;;;;;;;;;;21.83;30.05;98005.06;4998655;28;923;-78
2023/09/23 04:44:02;;;;;;;;;;;;;;;21.82;30.22;98009.13;4998836;28;1165;-77
2023/09/23 04:46:32;;;;;;;;;;;;;;;21.75;30.36;98014.19;5013128;28;1457;-78
2023/09/23 04:48:57;;;;;;;;;;;;;;;21.57;30.67;98014.66;4999072;28;1906;-78
2023/09/23 04:51:23;;;;;;;;;;;;;;;21.77;30.48;98015.34;4998095;28;1189;-79
2023/09/23 04:53:50;;;;;;;;;;;;;;;21.69;30.50;98016.75;4981877;28;921;-78
2023/09/23 04:56:17;;;;;;;;;;;;;;;21.74;30.13;98019.06;5009350;28;1439;-77
2023/09/23 04:58:43;;;;;;;;;;;;;;;21.90;29.82;98014.59;4998399;28;1010;-78
2023/09/23 05:01:14;;;;;;;;;;;;;;;21.99;30.02;98023.25;5014836;28;1005;-78
2023/09/23 05:03:42;;;;;;;;;;;;;;;21.88;30.16;98017.09;4998621;28;903;-78
2023/09/23 05:06:08;;;;;;;;;;;;;;;21.71;30.41;98014.31;5004647;28;1385;-78
2023/09/23 05:08:33;;;;;;;;;;;;;;;21.81;30.44;98018.88;5002405;28;1910;-78
2023/09/23 05:11:00;;;;;;;;;;;;;;;21.78;30.42;98021.78;5029820;28;1217;-78
2023/09/23 05:13:26;;;;;;;;;;;;;;;21.83;30.21;98022.03;5037064;28;920;-79
2023/09/23 05:15:51;;;;;;;;;;;;;;;21.73;30.42;98019.50;5028016;28;1298;-79
2023/09/23 05:18:17;;;;;;;;;;;;;;;21.78;30.63;98030.28;5016287;28;1438;-78
2023/09/23 05:20:43;;;;;;;;;;;;;;;21.58;30.98;98031.19;5015353;28;1212;-78
2023/09/23 05:23:08;;;;;;;;;;;;;;;21.75;30.43;98031.97;5032085;28;1087;-78
2023/09/23 05:25:35;;;;;;;;;;;;;;;21.92;30.02;98043.28;5011710;28;1370;-79
2023/09/23 05:28:03;;;;;;;;;;;;;;;21.63;30.87;98032.72;4981935;28;1913;-78
2023/09/23 05:30:28;;;;;;;;;;;;;;;21.89;30.32;98035.66;4979053;28;1130;-79
2023/09/23 05:32:54;;;;;;;;;;;;;;;21.76;30.30;98039.25;4994857;28;911;-78
2023/09/23 05:35:19;;;;;;;;;;;;;;;21.81;30.46;98041.53;4995270;28;1470;-78
2023/09/23 05:37:47;;;;;;;;;;;;;;;21.65;30.60;98044.38;5014373;28;932;-78
2023/09/23 05:40:26;;;;;;;;;;;;;;;22.01;30.33;98044.22;5014429;28;924;-78
2023/09/23 05:42:52;;;;;;;;;;;;;;;22.16;29.88;98050.31;4997632;28;1057;-78
2023/09/23 05:45:18;;;;;;;;;;;;;;;22.09;30.11;98039.16;5012656;28;1311;-78
2023/09/23 05:47:45;;;;;;;;;;;;;;;21.76;30.62;98044.91;4977639;28;1418;-78
2023/09/23 05:50:10;;;;;;;;;;;;;;;22.01;30.07;98043.41;4979007;28;1914;-78
2023/09/23 05:52:36;;;;;;;;;;;;;;;21.90;30.33;98042.91;4981912;28;988;-78
2023/09/23 05:55:05;;;;;;;;;;;;;;;21.64;31.06;98048.44;4998100;28;916;-78
2023/09/23 05:57:31;;;;;;;;;;;;;;;21.96;30.17;98041.13;4958369;28;1635;-78
2023/09/23 05:59:57;;;;;;;;;;;;;;;21.78;30.75;98048.09;4994425;28;993;-78
2023/09/23 06:02:24;;;;;;;;;;;;;;;21.85;30.44;98044.25;4982298;28;1277;-79
2023/09/23 06:04:49;;;;;;;;;;;;;;;21.89;30.53;98044.97;4981694;28;976;-78
2023/09/23 06:07:15;;;;;;;;;;;;;;;22.09;30.04;98044.81;4966425;28;1410;-78
2023/09/23 06:09:43;;;;;;;;;;;;;;;22.04;30.25;98048.19;4978730;28;1910;-78
2023/09/23 06:12:09;;;;;;;;;;;;;;;21.71;31.14;98059.59;4962352;28;1189;-78
2023/09/23 06:14:35;;;;;;;;;;;;;;;22.12;30.30;98055.28;4978141;28;1010;-78
2023/09/23 06:17:00;;;;;;;;;;;;;;;22.07;30.36;98064.28;4971875;28;1353;-78
2023/09/23 06:19:27;;;;;;;;;;;;;;;21.95;30.53;98065.84;4978351;28;1287;-79
2023/09/23 06:21:54;;;;;;;;;;;;;;;22.17;30.45;98056.78;4949235;28;1313;-78
2023/09/23 06:24:19;;;;;;;;;;;;;;;21.84;30.87;98063.28;4939652;29;952;-78
2023/09/23 06:26:45;;;;;;;;;;;;;;;22.00;30.38;98053.97;4939929;29;1096;-77
2023/09/23 06:29:14;;;;;;;;;;;;;;;21.84;31.04;98054.78;4954916;28;1950;-78
2023/09/23 06:31:40;;;;;;;;;;;;;;;21.79;30.96;98058.16;4938637;29;1356;-78
2023/09/23 06:34:06;;;;;;;;;;;;;;;21.76;31.22;98056.25;4923500;29;1028;-79
2023/09/23 06:36:32;;;;;;;;;;;;;;;21.72;31.03;98055.53;4939743;29;1034;-78
2023/09/23 06:38:57;;;;;;;;;;;;;;;21.81;31.05;98055.69;4923954;29;928;-77
2023/09/23 06:41:23;;;;;;;;;;;;;;;21.68;31.25;98054.81;4936608;29;1555;-78
2023/09/23 06:43:48;;;;;;;;;;;;;;;22.06;30.73;98062.72;4973087;28;1300;-78
2023/09/23 06:46:14;;;;;;;;;;;;;;;22.21;30.64;98063.13;4977869;28;1259;-78
2023/09/23 06:48:40;;;;;;;;;;;;;;;22.22;30.86;98065.53;4977735;28;1911;-78
2023/09/23 06:51:05;;;;;;;;;;;;;;;21.88;31.45;98070.91;4965262;28;1345;-78
2023/09/23 06:53:31;;;;;;;;;;;;;;;21.89;31.11;98064.78;4992649;28;1477;-78
2023/09/23 06:55:56;;;;;;;;;;;;;;;21.91;31.53;98075.66;5017083;28;1172;-78
2023/09/23 06:58:22;;;;;;;;;;;;;;;21.81;31.74;98078.34;4999973;28;994;-78
2023/09/23 07:00:47;;;;;;;;;;;;;;;21.91;31.25;98078.50;4998301;28;1406;-78
2023/09/23 07:03:13;;;;;;;;;;;;;;;21.95;31.38;98082.84;5043673;28;965;-78
2023/09/23 07:05:39;;;;;;;;;;;;;;;21.84;31.74;98085.94;5054339;28;988;-78
2023/09/23 07:08:04;;;;;;;;;;;;;;;22.18;30.97;98087.53;5020788;28;1976;-78
2023/09/23 07:10:33;;;;;;;;;;;;;;;22.22;30.90;98093.88;5038484;28;1466;-78
2023/09/23 07:12:59;;;;;;;;;;;;;;;22.17;31.18;98097.25;5037551;28;914;-78
2023/09/23 07:15:24;;;;;;;;;;;;;;;22.12;31.11;98102.66;5038365;28;892;-78
2023/09/23 07:17:50;;;;;;;;;;;;;;;21.98;31.33;98103.81;5037462;28;894;-78
2023/09/23 07:20:15;;;;;;;;;;;;;;;22.03;31.26;98094.78;5036443;28;1352;-78
2023/09/23 07:22:41;;;;;;;;;;;;;;;22.15;31.20;98105.41;5036961;28;976;-78
2023/09/23 07:25:06;;;;;;;;;;;;;;;22.08;31.47;98099.91;5036866;28;1084;-78
2023/09/23 07:27:32;;;;;;;;;;;;;;;21.87;31.78;98097.66;5036842;28;1071;-78
2023/09/23 07:29:57;;;;;;;;;;;;;;;22.07;31.22;98106.78;5036339;28;1984;-78
2023/09/23 07:32:23;;;;;;;;;;;;;;;22.18;31.14;98110.19;5038361;28;953;-78
2023/09/23 07:34:48;;;;;;;;;;;;;;;22.05;31.34;98106.47;5036807;28;1326;-78
2023/09/23 07:37:14;;;;;;;;;;;;;;;22.10;31.19;98108.75;5038019;28;1099;-78
2023/09/23 07:39:40;;;;;;;;;;;;;;;22.19;31.04;98100.44;5036728;28;980;-78
2023/09/23 07:42:06;;;;;;;;;;;;;;;22.12;31.18;98105.50;5054466;28;1041;-78
2023/09/23 07:44:31;;;;;;;;;;;;;;;22.05;31.18;98103.63;5057415;28;1361;-78
2023/09/23 07:46:57;;;;;;;;;;;;;;;22.24;31.08;98108.41;5023601;28;1019;-77
2023/09/23 07:49:22;;;;;;;;;;;;;;;22.28;30.76;98120.44;5022507;28;2031;-77
2023/09/23 07:51:48;;;;;;;;;;;;;;;22.02;31.53;98107.34;5057961;28;955;-78
2023/09/23 07:54:14;;;;;;;;;;;;;;;22.28;30.85;98111.16;5057183;28;1415;-78
2023/09/23 07:56:39;;;;;;;;;;;;;;;22.14;31.28;98109.50;5057771;28;929;-78
2023/09/23 07:59:06;;;;;;;;;;;;;;;22.40;30.89;98118.09;5040265;28;983;-78
2023/09/23 08:01:31;;;;;;;;;;;;;;;22.30;30.73;98114.31;5057550;28;910;-78
2023/09/23 08:03:57;;;;;;;;;;;;;;;22.15;31.20;98111.06;5057088;28;1270;-78
2023/09/23 08:06:22;;;;;;;;;;;;;;;22.03;31.31;98108.94;5057000;28;932;-78
2023/09/23 08:08:48;;;;;;;;;;;;;;;22.20;31.20;98118.25;5056240;28;2212;-78
2023/09/23 08:11:14;;;;;;;;;;;;;;;22.38;30.54;98112.84;5056335;28;897;-79
2023/09/23 08:13:40;;;;;;;;;;;;;;;22.18;31.28;98110.19;5055143;28;1496;-78
2023/09/23 08:16:05;;;;;;;;;;;;;;;22.32;30.74;98109.78;5055369;28;1309;-78
2023/09/23 08:18:31;;;;;;;;;;;;;;;22.12;30.93;98106.28;5056799;28;910;-78
2023/09/23 08:20:59;;;;;;;;;;;;;;;22.03;31.35;98103.28;5039274;28;1007;-78
2023/09/23 08:23:25;;;;;;;;;;;;;;;22.02;31.45;98101.66;5056371;28;1402;-78
2023/09/23 08:25:51;;;;;;;;;;;;;;;22.25;31.01;98109.97;5039422;28;866;-78
2023/09/23 08:28:17;;;;;;;;;;;;;;;22.18;31.37;98107.34;5038760;28;1902;-78
2023/09/23 08:30:44;;;;;;;;;;;;;;;21.79;31.63;98100.66;5039202;28;1103;-78
2023/09/23 08:33:12;;;;;;;;;;;;;;;22.11;31.42;98099.03;5055865;28;1364;-78
2023/09/23 08:35:38;;;;;;;;;;;;;;;22.11;31.36;98110.38;5056006;28;1468;-78
2023/09/23 08:38:04;;;;;;;;;;;;;;;22.09;31.39;98107.97;5039074;28;1105;-78
2023/09/23 08:40:38;;;;;;;;;;;;;;;22.11;31.49;98104.69;5039459;28;946;-78
2023/09/23 08:43:04;;;;;;;;;;;;;;;22.05;31.44;98104.41;5039739;28;1358;-78
2023/09/23 08:45:30;;;;;;;;;;;;;;;22.01;31.41;98105.75;5036267;28;1468;-78
2023/09/23 08:47:55;;;;;;;;;;;;;;;22.34;30.81;98104.47;5033978;28;1421;-79
2023/09/23 08:50:21;;;;;;;;;;;;;;;22.47;30.70;98100.88;5022384;28;1915;-78
2023/09/23 08:52:46;;;;;;;;;;;;;;;22.08;31.21;98099.91;5055910;28;1052;-78
2023/09/23 08:55:11;;;;;;;;;;;;;;;22.12;31.41;98100.63;5038360;28;1734;-78
2023/09/23 08:57:37;;;;;;;;;;;;;;;22.27;30.90;98095.34;5038829;28;990;-78
2023/09/23 09:00:08;;;;;;;;;;;;;;;22.14;31.30;98101.00;5038532;28;1605;-79
2023/09/23 09:02:33;;;;;;;;;;;;;;;21.91;31.93;98106.81;5039814;28;868;-78
2023/09/23 09:04:59;;;;;;;;;;;;;;;22.06;31.50;98102.38;5056508;28;896;-78
2023/09/23 09:07:25;;;;;;;;;;;;;;;22.12;31.36;98100.63;5056703;28;888;-78
2023/09/23 09:09:51;;;;;;;;;;;;;;;22.17;31.53;98102.91;5038383;28;1973;-78
2023/09/23 09:12:16;;;;;;;;;;;;;;;22.63;30.57;98100.81;5039019;28;940;-78
2023/09/23 09:14:42;;;;;;;;;;;;;;;22.44;31.09;98104.63;5021505;28;1435;-78
2023/09/23 09:17:12;;;;;;;;;;;;;;;22.49;30.94;98104.06;5054682;28;1360;-78
2023/09/23 09:19:39;;;;;;;;;;;;;;;22.28;31.09;98103.44;5038110;28;1220;-78
2023/09/23 09:22:06;;;;;;;;;;;;;;;22.22;31.42;98096.69;5022550;28;1002;-78
2023/09/23 09:24:33;;;;;;;;;;;;;;;22.26;31.49;98100.22;5001655;28;1454;-78
2023/09/23 09:26:59;;;;;;;;;;;;;;;22.26;31.43;98111.56;5058969;28;1435;-78
2023/09/23 09:29:24;;;;;;;;;;;;;;;22.09;31.79;98095.84;5042500;28;1989;-78
2023/09/23 09:31:51;;;;;;;;;;;;;;;22.32;31.39;98104.09;5026684;28;980;-78
2023/09/23 09:34:18;;;;;;;;;;;;;;;22.23;31.51;98106.81;5041515;28;1425;-78
2023/09/23 09:36:44;;;;;;;;;;;;;;;22.43;30.85;98097.34;5041149;28;1452;-78
2023/09/23 09:39:10;;;;;;;;;;;;;;;22.59;30.77;98103.78;5025993;28;1138;-76
2023/09/23 09:41:46;;;;;;;;;;;;;;;22.23;31.51;98100.34;5042647;28;862;-76
2023/09/23 09:44:12;;;;;;;;;;;;;;;22.28;31.44;98100.59;5025007;28;1307;-77
2023/09/23 09:46:38;;;;;;;;;;;;;;;22.03;31.72;98098.41;5042843;28;949;-76
2023/09/23 09:49:04;;;;;;;;;;;;;;;22.24;31.40;98101.94;5042229;28;1915;-76
2023/09/23 09:51:30;;;;;;;;;;;;;;;22.26;31.31;98100.22;5042276;28;907;-76
2023/09/23 09:53:55;;;;;;;;;;;;;;;22.23;31.58;98106.81;5041721;28;1424;-76
2023/09/23 09:56:21;;;;;;;;;;;;;;;22.48;30.86;98102.47;5025759;28;1322;-76
2023/09/23 09:58:47;;;;;;;;;;;;;;;22.38;31.13;98100.72;5001162;28;1200;-77
2023/09/23 10:01:13;;;;;;;;;;;;;;;22.44;31.15;98104.63;5001746;28;1015;-76
2023/09/23 10:03:45;;;;;;;;;;;;;;;22.51;30.94;98104.41;5000814;28;1443;-75
2023/09/23 10:06:18;;;;;;;;;;;;;;;22.31;31.23;98096.06;5017687;28;1229;-76
2023/09/23 10:08:46;;;;;;;;;;;;;;;22.36;31.35;98096.31;5001610;28;1987;-76
2023/09/23 10:11:13;;;;;;;;;;;;;;;22.53;30.97;98101.91;4985596;28;1081;-76
2023/09/23 10:13:38;;;;;;;;;;;;;;;22.34;31.38;98098.81;5001080;28;951;-76
2023/09/23 10:16:04;;;;;;;;;;;;;;;22.18;31.62;98098.84;5016815;28;1552;-76
2023/09/23 10:18:37;;;;;;;;;;;;;;;22.16;31.49;98101.31;5001217;28;1022;-76
2023/09/23 10:21:03;;;;;;;;;;;;;;;22.35;31.48;98108.91;5001323;28;1213;-76
2023/09/23 10:23:32;;;;;;;;;;;;;;;22.31;31.25;98096.84;5000918;28;959;-76
2023/09/23 10:25:58;;;;;;;;;;;;;;;22.40;31.21;98098.25;5000464;28;1404;-75
2023/09/23 10:28:24;;;;;;;;;;;;;;;22.37;31.13;98094.25;5017439;28;1997;-76
2023/09/23 10:31:03;;;;;;;;;;;;;;;22.37;31.25;98094.25;5056038;28;934;-77
2023/09/23 10:33:30;;;;;;;;;;;;;;;22.02;31.69;98090.34;5024891;28;972;-76
2023/09/23 10:35:59;;;;;;;;;;;;;;;22.21;31.36;98086.59;5039958;28;1356;-76
2023/09/23 10:38:30;;;;;;;;;;;;;;;22.28;31.37;98086.44;5041953;28;932;-77
2023/09/23 10:40:56;;;;;;;;;;;;;;;22.57;31.00;98091.28;5025380;28;959;-76
2023/09/23 10:43:21;;;;;;;;;;;;;;;22.20;31.29;98087.06;5058565;28;1008;-76
2023/09/23 10:45:48;;;;;;;;;;;;;;;22.31;31.56;98079.84;5040072;28;1414;-77
2023/09/23 10:48:16;;;;;;;;;;;;;;;22.46;31.00;98093.63;5041151;28;1961;-76
2023/09/23 10:50:42;;;;;;;;;;;;;;;22.57;30.91;98083.56;5058701;28;886;-77
2023/09/23 10:53:08;;;;;;;;;;;;;;;22.34;31.45;98078.97;5041180;28;1024;-77
2023/09/23 10:55:34;;;;;;;;;;;;;;;22.51;31.18;98076.06;5040055;28;1412;-76
2023/09/23 10:58:00;;;;;;;;;;;;;;;22.38;31.20;98083.72;5058517;28;863;-77
2023/09/23 11:00:25;;;;;;;;;;;;;;;22.54;30.80;98080.84;5016730;28;1145;-76
2023/09/23 11:02:52;;;;;;;;;;;;;;;22.36;31.28;98082.13;5016507;28;1135;-76
2023/09/23 11:05:18;;;;;;;;;;;;;;;22.56;30.84;98072.66;4989971;28;1605;-77
2023/09/23 11:07:44;;;;;;;;;;;;;;;22.39;31.05;98074.00;4996958;28;1049;-76
2023/09/23 11:10:12;;;;;;;;;;;;;;;22.24;31.35;98065.88;4996712;28;1906;-76
2023/09/23 11:12:41;;;;;;;;;;;;;;;22.26;31.08;98059.75;4996995;28;964;-76
2023/09/23 11:15:07;;;;;;;;;;;;;;;22.20;31.54;98056.69;4996256;28;1693;-76
2023/09/23 11:17:34;;;;;;;;;;;;;;;22.45;31.09;98058.00;4997083;28;890;-76
2023/09/23 11:20:00;;;;;;;;;;;;;;;22.01;31.78;98054.75;4996890;28;1019;-76
2023/09/23 11:22:26;;;;;;;;;;;;;;;22.43;31.26;98061.28;4996850;28;941;-76
2023/09/23 11:24:52;;;;;;;;;;;;;;;21.99;31.99;98054.41;5002445;28;1366;-76
2023/09/23 11:27:17;;;;;;;;;;;;;;;22.29;31.28;98056.84;4998926;28;1442;-76
2023/09/23 11:29:43;;;;;;;;;;;;;;;22.47;30.76;98053.47;5014768;28;1991;-76
2023/09/23 11:32:09;;;;;;;;;;;;;;;22.58;30.83;98048.28;5028203;28;1008;-76
2023/09/23 11:34:36;;;;;;;;;;;;;;;22.36;30.94;98048.13;5002760;28;1455;-77
2023/09/23 11:37:02;;;;;;;;;;;;;;;22.32;31.22;98047.41;5035935;28;1131;-76
2023/09/23 11:39:31;;;;;;;;;;;;;;;22.29;31.15;98042.66;5018986;28;1046;-77
2023/09/23 11:41:58;;;;;;;;;;;;;;;22.41;31.15;98034.63;5019323;28;1067;-76
2023/09/23 11:44:23;;;;;;;;;;;;;;;22.20;31.22;98041.72;4995344;28;1329;-77
2023/09/23 11:46:49;;;;;;;;;;;;;;;22.14;31.47;98035.81;4980338;28;982;-76
2023/09/23 11:49:14;;;;;;;;;;;;;;;22.21;31.24;98038.44;4956363;28;1975;-77
2023/09/23 11:51:41;;;;;;;;;;;;;;;22.19;31.24;98042.97;4957363;28;969;-77
2023/09/23 11:54:10;;;;;;;;;;;;;;;22.48;31.04;98034.41;4956722;28;1366;-76
2023/09/23 11:56:35;;;;;;;;;;;;;;;22.45;30.97;98032.50;4973140;28;1196;-76
2023/09/23 11:59:01;;;;;;;;;;;;;;;22.44;30.89;98030.91;4972938;28;993;-76
2023/09/23 12:01:27;;;;;;;;;;;;;;;22.39;31.10;98034.31;4973337;28;1014;-76
2023/09/23 12:03:58;;;;;;;;;;;;;;;22.30;30.92;98021.56;4988462;28;1311;-77
2023/09/23 12:06:24;;;;;;;;;;;;;;;22.54;30.73;98029.81;4960477;28;1048;-76
2023/09/23 12:08:49;;;;;;;;;;;;;;;22.57;30.83;98032.50;4976052;28;1903;-76
2023/09/23 12:11:15;;;;;;;;;;;;;;;22.30;31.20;98021.56;4976574;28;921;-76
2023/09/23 12:13:40;;;;;;;;;;;;;;;22.18;31.40;98019.50;4975993;28;1339;-76
2023/09/23 12:16:05;;;;;;;;;;;;;;;22.33;31.27;98020.69;4992025;28;1875;-77
2023/09/23 12:18:31;;;;;;;;;;;;;;;22.61;30.70;98029.56;4979713;28;1092;-77
2023/09/23 12:20:58;;;;;;;;;;;;;;;22.44;30.84;98030.91;5027571;28;1206;-76
2023/09/23 12:23:25;;;;;;;;;;;;;;;22.40;31.09;98027.38;5057529;28;910;-75
2023/09/23 12:25:51;;;;;;;;;;;;;;;22.54;30.80;98024.13;5039422;28;1350;-77
2023/09/23 12:28:17;;;;;;;;;;;;;;;22.58;30.95;98028.41;5057135;28;1914;-77
2023/09/23 12:30:42;;;;;;;;;;;;;;;22.56;30.85;98025.25;5039570;28;935;-76
2023/09/23 12:33:08;;;;;;;;;;;;;;;22.59;30.65;98030.03;5022990;28;832;-77
2023/09/23 12:35:33;;;;;;;;;;;;;;;22.54;30.99;98024.91;5056339;28;1250;-77
2023/09/23 12:38:00;;;;;;;;;;;;;;;22.52;30.99;98016.06;5057022;28;875;-76
2023/09/23 12:40:26;;;;;;;;;;;;;;;22.54;30.78;98022.09;5038983;28;1047;-77
2023/09/23 12:42:52;;;;;;;;;;;;;;;22.57;30.88;98028.88;5013969;28;1523;-76
2023/09/23 12:45:17;;;;;;;;;;;;;;;22.59;30.86;98026.41;4998743;28;997;-76
2023/09/23 12:47:44;;;;;;;;;;;;;;;22.47;31.08;98025.13;5015089;28;957;-76
2023/09/23 12:50:09;;;;;;;;;;;;;;;22.32;30.96;98021.91;4998601;28;1910;-76
2023/09/23 12:52:36;;;;;;;;;;;;;;;22.33;31.02;98014.22;5013857;28;1426;-76
2023/09/23 12:55:02;;;;;;;;;;;;;;;22.34;31.05;98019.44;5014706;28;951;-76
2023/09/23 12:57:28;;;;;;;;;;;;;;;22.54;30.73;98012.78;5015314;28;1050;-76